createdAt,value
2023-11-23T00:00:12.793Z,26.00
2023-11-23T00:01:15.680Z,26.00
2023-11-23T00:02:19.113Z,25.83
2023-11-23T00:03:21.911Z,25.00
2023-11-23T00:04:24.786Z,25.00
2023-11-23T00:05:28.692Z,25.00
2023-11-23T00:06:31.426Z,24.33
2023-11-23T00:07:34.444Z,24.00
2023-11-23T00:08:37.215Z,24.67
2023-11-23T00:09:40.782Z,25.33
2023-11-23T00:10:43.612Z,26.67
2023-11-23T00:11:46.381Z,27.83
2023-11-23T00:12:49.119Z,28.67
2023-11-23T00:13:53.172Z,29.00
2023-11-23T00:14:55.961Z,29.00
2023-11-23T00:15:58.687Z,29.00
2023-11-23T00:17:01.496Z,29.00
2023-11-23T00:18:04.700Z,28.00
2023-11-23T00:19:07.481Z,28.00
2023-11-23T00:20:11.653Z,28.00
2023-11-23T00:21:14.435Z,27.17
2023-11-23T00:22:17.799Z,26.67
2023-11-23T00:23:20.574Z,25.67
2023-11-23T00:24:23.332Z,24.50
2023-11-23T00:25:26.136Z,24.00
2023-11-23T00:26:28.864Z,23.50
2023-11-23T00:27:35.558Z,23.00
2023-11-23T00:28:38.372Z,22.67
2023-11-23T00:29:41.103Z,22.00
2023-11-23T00:30:43.894Z,22.00
2023-11-23T00:31:46.684Z,22.33
2023-11-23T00:32:49.493Z,23.00
2023-11-23T00:33:52.370Z,23.00
2023-11-23T00:34:55.219Z,23.00
2023-11-23T00:35:58.028Z,23.00
2023-11-23T00:37:00.816Z,23.00
2023-11-23T00:38:04.845Z,23.00
2023-11-23T00:39:10.749Z,23.00
2023-11-23T00:40:16.388Z,23.00
2023-11-23T00:41:19.165Z,23.67
2023-11-23T00:42:21.910Z,24.00
2023-11-23T00:43:25.689Z,24.00
2023-11-23T00:44:28.466Z,24.83
2023-11-23T00:45:31.417Z,25.00
2023-11-23T00:46:36.848Z,25.33
2023-11-23T00:47:39.738Z,26.17
2023-11-23T00:48:42.652Z,27.00
2023-11-23T00:49:46.133Z,27.00
2023-11-23T00:50:48.999Z,27.67
2023-11-23T00:51:51.757Z,28.00
2023-11-23T00:52:54.506Z,28.00
2023-11-23T00:53:57.573Z,28.00
2023-11-23T00:55:00.494Z,28.67
2023-11-23T00:56:04.487Z,29.67
2023-11-23T00:57:07.997Z,30.67
2023-11-23T00:58:10.784Z,31.00
2023-11-23T00:59:13.511Z,31.17
2023-11-23T01:00:19.559Z,32.00
2023-11-23T01:01:22.456Z,32.67
2023-11-23T01:02:25.392Z,33.00
2023-11-23T01:03:28.747Z,33.00
2023-11-23T01:04:31.555Z,33.00
2023-11-23T01:05:35.755Z,33.00
2023-11-23T01:06:38.489Z,33.00
2023-11-23T01:07:41.237Z,33.00
2023-11-23T01:08:45.170Z,32.67
2023-11-23T01:09:47.921Z,31.50
2023-11-23T01:10:50.693Z,31.00
2023-11-23T01:11:53.474Z,30.50
2023-11-23T01:12:56.238Z,30.00
2023-11-23T01:13:59.272Z,30.00
2023-11-23T01:15:03.371Z,29.33
2023-11-23T01:16:06.327Z,29.00
2023-11-23T01:17:09.059Z,29.00
2023-11-23T01:18:11.825Z,29.00
2023-11-23T01:19:14.655Z,28.33
2023-11-23T01:20:17.385Z,28.00
2023-11-23T01:21:20.125Z,27.50
2023-11-23T01:22:22.861Z,27.00
2023-11-23T01:23:27.052Z,26.00
2023-11-23T01:24:29.797Z,25.83
2023-11-23T01:25:32.817Z,25.00
2023-11-23T01:26:35.758Z,25.00
2023-11-23T01:27:39.106Z,25.00
2023-11-23T01:28:41.994Z,25.00
2023-11-23T01:29:44.785Z,25.00
2023-11-23T01:30:47.761Z,25.00
2023-11-23T01:31:50.515Z,25.00
2023-11-23T01:32:54.223Z,25.00
2023-11-23T01:33:57.334Z,25.00
2023-11-23T01:35:00.273Z,25.00
2023-11-23T01:36:03.208Z,25.00
2023-11-23T01:37:05.991Z,24.17
2023-11-23T01:38:08.750Z,23.33
2023-11-23T01:39:12.900Z,23.00
2023-11-23T01:40:16.653Z,23.00
2023-11-23T01:41:19.396Z,23.00
2023-11-23T01:42:22.156Z,23.00
2023-11-23T01:43:24.928Z,23.00
2023-11-23T01:44:28.226Z,23.00
2023-11-23T01:45:30.992Z,23.00
2023-11-23T01:46:33.933Z,23.00
2023-11-23T01:47:41.028Z,23.33
2023-11-23T01:48:45.145Z,24.00
2023-11-23T01:49:50.328Z,24.00
2023-11-23T01:50:55.048Z,24.00
2023-11-23T01:51:57.899Z,24.00
2023-11-23T01:53:02.052Z,24.00
2023-11-23T01:54:04.974Z,25.00
2023-11-23T01:55:08.518Z,25.00
2023-11-23T01:56:13.052Z,25.00
2023-11-23T01:57:17.153Z,25.00
2023-11-23T01:58:21.710Z,25.00
2023-11-23T01:59:25.222Z,25.00
2023-11-23T02:00:28.790Z,25.83
2023-11-23T02:01:31.863Z,26.67
2023-11-23T02:02:34.673Z,27.83
2023-11-23T02:03:40.222Z,28.50
2023-11-23T02:04:43.018Z,29.00
2023-11-23T02:05:45.973Z,29.00
2023-11-23T02:06:48.730Z,29.67
2023-11-23T02:07:51.498Z,30.00
2023-11-23T02:08:54.497Z,30.33
2023-11-23T02:09:57.334Z,31.50
2023-11-23T02:11:01.542Z,32.00
2023-11-23T02:12:07.614Z,32.00
2023-11-23T02:13:10.517Z,32.17
2023-11-23T02:14:13.544Z,33.67
2023-11-23T02:15:16.330Z,33.67
2023-11-23T02:16:19.121Z,33.00
2023-11-23T02:17:22.870Z,33.00
2023-11-23T02:18:26.609Z,33.00
2023-11-23T02:19:29.441Z,33.00
2023-11-23T02:20:32.924Z,33.33
2023-11-23T02:21:36.324Z,34.50
2023-11-23T02:22:39.506Z,36.50
2023-11-23T02:23:42.298Z,38.33
2023-11-23T02:24:45.519Z,39.83
2023-11-23T02:25:48.284Z,40.00
2023-11-23T02:26:51.029Z,40.00
2023-11-23T02:27:54.304Z,40.00
2023-11-23T02:28:57.032Z,40.00
2023-11-23T02:29:59.839Z,40.33
2023-11-23T02:31:03.581Z,40.83
2023-11-23T02:32:07.405Z,40.83
2023-11-23T02:33:10.666Z,40.33
2023-11-23T02:34:13.460Z,39.67
2023-11-23T02:35:16.210Z,38.50
2023-11-23T02:36:19.267Z,37.33
2023-11-23T02:37:22.040Z,37.00
2023-11-23T02:38:24.790Z,37.00
2023-11-23T02:39:27.823Z,37.00
2023-11-23T02:40:30.566Z,36.33
2023-11-23T02:41:33.307Z,35.67
2023-11-23T02:42:36.203Z,34.67
2023-11-23T02:43:38.931Z,34.00
2023-11-23T02:44:41.691Z,34.00
2023-11-23T02:45:44.666Z,33.17
2023-11-23T02:46:47.471Z,33.00
2023-11-23T02:47:50.837Z,33.00
2023-11-23T02:48:53.790Z,32.17
2023-11-23T02:49:56.571Z,32.00
2023-11-23T02:50:59.405Z,32.00
2023-11-23T02:52:02.712Z,32.00
2023-11-23T02:53:06.115Z,32.00
2023-11-23T02:54:08.927Z,32.00
2023-11-23T02:55:12.600Z,32.00
2023-11-23T02:56:16.652Z,32.00
2023-11-23T02:57:19.450Z,32.00
2023-11-23T02:58:23.058Z,32.00
2023-11-23T02:59:25.797Z,32.00
2023-11-23T03:00:28.562Z,32.00
2023-11-23T03:01:33.494Z,33.00
2023-11-23T03:02:36.402Z,33.00
2023-11-23T03:03:39.900Z,33.00
2023-11-23T03:04:43.019Z,33.00
2023-11-23T03:05:45.840Z,33.00
2023-11-23T03:06:48.696Z,33.00
2023-11-23T03:07:51.445Z,32.33
2023-11-23T03:08:54.646Z,32.00
2023-11-23T03:09:57.397Z,32.67
2023-11-23T03:11:00.216Z,33.00
2023-11-23T03:12:03.070Z,34.00
2023-11-23T03:13:07.357Z,34.00
2023-11-23T03:14:10.090Z,35.00
2023-11-23T03:15:12.950Z,35.50
2023-11-23T03:16:15.904Z,36.00
2023-11-23T03:17:20.314Z,36.00
2023-11-23T03:18:23.265Z,36.00
2023-11-23T03:19:26.073Z,36.50
2023-11-23T03:20:28.836Z,37.00
2023-11-23T03:21:31.663Z,37.00
2023-11-23T03:22:34.449Z,37.00
2023-11-23T03:23:37.401Z,37.00
2023-11-23T03:24:40.500Z,36.67
2023-11-23T03:25:43.247Z,35.17
2023-11-23T03:26:46.774Z,35.00
2023-11-23T03:27:49.583Z,34.33
2023-11-23T03:28:52.425Z,33.00
2023-11-23T03:29:55.276Z,31.33
2023-11-23T03:30:58.255Z,29.83
2023-11-23T03:32:00.969Z,28.50
2023-11-23T03:33:04.042Z,26.83
2023-11-23T03:34:07.159Z,26.00
2023-11-23T03:35:10.994Z,27.00
2023-11-23T03:36:13.786Z,27.00
2023-11-23T03:37:17.247Z,27.67
2023-11-23T03:38:19.991Z,28.33
2023-11-23T03:39:22.920Z,33.50
2023-11-23T03:40:25.695Z,41.33
2023-11-23T03:41:28.420Z,42.00
2023-11-23T03:42:31.170Z,42.00
2023-11-23T03:43:33.910Z,41.50
2023-11-23T03:44:36.654Z,41.00
2023-11-23T03:45:39.443Z,40.33
2023-11-23T03:46:42.177Z,39.33
2023-11-23T03:47:44.978Z,38.00
2023-11-23T03:48:47.803Z,36.33
2023-11-23T03:49:52.003Z,34.50
2023-11-23T03:50:54.788Z,33.33
2023-11-23T03:51:58.637Z,32.83
2023-11-23T03:53:01.740Z,33.33
2023-11-23T03:54:04.720Z,35.50
2023-11-23T03:55:07.918Z,36.83
2023-11-23T03:56:16.637Z,37.50
2023-11-23T03:57:20.174Z,40.00
2023-11-23T03:58:22.939Z,42.17
2023-11-23T03:59:25.955Z,42.17
2023-11-23T04:00:29.208Z,42.00
2023-11-23T04:01:32.677Z,42.00
2023-11-23T04:02:35.496Z,41.00
2023-11-23T04:03:42.193Z,41.00
2023-11-23T04:04:44.945Z,41.67
2023-11-23T04:05:47.816Z,44.00
2023-11-23T04:06:50.588Z,47.00
2023-11-23T04:07:53.334Z,48.00
2023-11-23T04:08:56.149Z,47.17
2023-11-23T04:09:59.258Z,45.17
2023-11-23T04:11:01.988Z,44.00
2023-11-23T04:12:05.593Z,44.00
2023-11-23T04:13:08.433Z,44.00
2023-11-23T04:14:11.296Z,44.00
2023-11-23T04:15:14.161Z,44.33
2023-11-23T04:16:17.051Z,45.00
2023-11-23T04:17:19.816Z,45.17
2023-11-23T04:18:22.620Z,50.00
2023-11-23T04:19:25.399Z,58.50
2023-11-23T04:20:30.837Z,61.00
2023-11-23T04:21:34.370Z,60.33
2023-11-23T04:22:37.606Z,60.00
2023-11-23T04:23:40.921Z,59.83
2023-11-23T04:24:43.651Z,59.00
2023-11-23T04:25:46.444Z,59.83
2023-11-23T04:26:49.213Z,59.67
2023-11-23T04:27:51.979Z,58.17
2023-11-23T04:28:54.929Z,56.00
2023-11-23T04:29:57.689Z,53.67
2023-11-23T04:31:00.437Z,51.33
2023-11-23T04:32:03.258Z,49.00
2023-11-23T04:33:06.069Z,46.33
2023-11-23T04:34:08.973Z,43.33
2023-11-23T04:35:12.342Z,42.17
2023-11-23T04:36:15.115Z,41.00
2023-11-23T04:37:18.781Z,41.00
2023-11-23T04:38:21.511Z,41.67
2023-11-23T04:39:24.283Z,41.00
2023-11-23T04:40:27.049Z,41.00
2023-11-23T04:41:29.773Z,41.00
2023-11-23T04:42:32.532Z,41.00
2023-11-23T04:43:35.351Z,41.67
2023-11-23T04:44:38.151Z,41.00
2023-11-23T04:45:42.305Z,41.00
2023-11-23T04:46:45.175Z,43.00
2023-11-23T04:47:48.054Z,60.67
2023-11-23T04:48:50.835Z,73.17
2023-11-23T04:49:54.133Z,71.67
2023-11-23T04:50:56.961Z,70.50
2023-11-23T04:51:59.731Z,70.67
2023-11-23T04:53:02.700Z,76.50
2023-11-23T04:54:05.818Z,79.17
2023-11-23T04:55:08.927Z,78.83
2023-11-23T04:56:12.366Z,75.83
2023-11-23T04:57:15.220Z,73.67
2023-11-23T04:58:17.974Z,73.00
2023-11-23T04:59:21.756Z,72.17
2023-11-23T05:00:26.702Z,69.50
2023-11-23T05:01:29.895Z,59.67
2023-11-23T05:02:51.374Z,49.67
2023-11-23T05:03:54.581Z,46.33
2023-11-23T05:04:57.411Z,48.83
2023-11-23T05:06:00.291Z,52.00
2023-11-23T05:07:03.081Z,57.50
2023-11-23T05:08:05.816Z,59.33
2023-11-23T05:09:08.568Z,60.67
2023-11-23T05:10:11.394Z,61.17
2023-11-23T05:11:14.153Z,62.00
2023-11-23T05:12:18.773Z,62.33
2023-11-23T05:13:21.555Z,63.00
2023-11-23T05:14:24.399Z,62.67
2023-11-23T05:15:27.251Z,63.00
2023-11-23T05:16:30.039Z,62.17
2023-11-23T05:17:33.058Z,62.00
2023-11-23T05:18:35.976Z,61.50
2023-11-23T05:19:42.829Z,61.50
2023-11-23T05:20:46.138Z,62.83
2023-11-23T05:21:49.059Z,68.00
2023-11-23T05:22:52.399Z,73.00
2023-11-23T05:23:55.165Z,72.33
2023-11-23T05:24:57.922Z,71.33
2023-11-23T05:26:00.780Z,70.83
2023-11-23T05:27:03.569Z,71.17
2023-11-23T05:28:07.393Z,71.00
2023-11-23T05:29:10.174Z,72.83
2023-11-23T05:30:13.245Z,78.00
2023-11-23T05:31:16.197Z,80.67
2023-11-23T05:32:19.671Z,87.17
2023-11-23T05:33:25.511Z,98.33
2023-11-23T05:34:28.593Z,94.00
2023-11-23T05:35:32.238Z,92.00
2023-11-23T05:36:34.973Z,91.00
2023-11-23T05:37:37.722Z,90.00
2023-11-23T05:38:40.461Z,88.67
2023-11-23T05:39:44.497Z,87.33
2023-11-23T05:40:47.630Z,87.00
2023-11-23T05:41:50.666Z,91.83
2023-11-23T05:42:58.265Z,95.83
2023-11-23T05:44:07.544Z,95.83
2023-11-23T05:45:10.587Z,97.00
2023-11-23T05:46:14.853Z,101.67
2023-11-23T05:47:17.925Z,107.50
2023-11-23T05:48:20.748Z,121.83
2023-11-23T05:49:23.720Z,112.50
2023-11-23T05:50:26.463Z,109.00
2023-11-23T05:51:32.336Z,107.33
2023-11-23T05:52:35.525Z,96.17
2023-11-23T05:53:38.288Z,81.00
2023-11-23T05:54:41.036Z,74.00
2023-11-23T05:55:43.791Z,72.00
2023-11-23T05:56:47.084Z,74.50
2023-11-23T05:57:49.894Z,73.50
2023-11-23T05:58:52.640Z,74.17
2023-11-23T05:59:55.932Z,77.00
2023-11-23T06:01:07.188Z,78.00
2023-11-23T06:02:12.915Z,78.00
2023-11-23T06:03:15.808Z,84.17
2023-11-23T06:04:18.758Z,83.67
2023-11-23T06:05:21.752Z,68.83
2023-11-23T06:06:24.938Z,65.33
2023-11-23T06:07:27.686Z,67.00
2023-11-23T06:08:30.455Z,62.83
2023-11-23T06:09:33.396Z,65.17
2023-11-23T06:10:36.137Z,66.83
2023-11-23T06:11:38.887Z,68.17
2023-11-23T06:12:42.180Z,66.50
2023-11-23T06:13:47.120Z,60.17
2023-11-23T06:14:49.946Z,59.50
2023-11-23T06:15:52.765Z,63.00
2023-11-23T06:16:55.525Z,64.17
2023-11-23T06:18:07.591Z,73.67
2023-11-23T06:19:17.141Z,84.50
2023-11-23T06:20:20.082Z,80.33
2023-11-23T06:21:22.973Z,69.50
2023-11-23T06:22:25.782Z,60.33
2023-11-23T06:23:29.854Z,54.00
2023-11-23T06:24:32.624Z,51.50
2023-11-23T06:25:35.362Z,55.33
2023-11-23T06:26:38.110Z,57.83
2023-11-23T06:27:40.857Z,58.50
2023-11-23T06:28:43.957Z,74.33
2023-11-23T06:29:46.774Z,92.50
2023-11-23T06:30:49.509Z,86.17
2023-11-23T06:31:52.424Z,83.33
2023-11-23T06:32:55.233Z,82.33
2023-11-23T06:33:58.311Z,95.50
2023-11-23T06:35:01.083Z,122.17
2023-11-23T06:36:04.087Z,109.00
2023-11-23T06:37:06.855Z,96.33
2023-11-23T06:38:09.805Z,77.83
2023-11-23T06:39:12.619Z,69.50
2023-11-23T06:40:15.609Z,62.67
2023-11-23T06:41:27.045Z,64.67
2023-11-23T06:42:29.836Z,66.83
2023-11-23T06:43:32.617Z,65.50
2023-11-23T06:44:35.355Z,64.67
2023-11-23T06:45:38.601Z,67.00
2023-11-23T06:46:41.359Z,68.00
2023-11-23T06:47:44.306Z,67.33
2023-11-23T06:48:47.543Z,65.50
2023-11-23T06:49:50.545Z,85.33
2023-11-23T06:50:53.288Z,142.50
2023-11-23T06:51:56.376Z,122.67
2023-11-23T06:52:59.218Z,99.00
2023-11-23T06:54:02.019Z,88.00
2023-11-23T06:55:06.890Z,173.17
2023-11-23T06:56:13.836Z,158.50
2023-11-23T06:57:16.657Z,149.17
2023-11-23T06:58:19.400Z,147.50
2023-11-23T06:59:22.471Z,124.00
2023-11-23T07:00:25.471Z,99.67
2023-11-23T07:01:28.402Z,99.00
2023-11-23T07:02:31.301Z,82.50
2023-11-23T07:03:34.950Z,65.67
2023-11-23T07:04:38.576Z,64.00
2023-11-23T07:05:41.374Z,59.67
2023-11-23T07:06:44.097Z,57.50
2023-11-23T07:07:49.755Z,58.33
2023-11-23T07:08:52.666Z,53.83
2023-11-23T07:09:55.933Z,53.67
2023-11-23T07:10:58.788Z,58.00
2023-11-23T07:12:01.595Z,60.33
2023-11-23T07:13:04.496Z,63.33
2023-11-23T07:14:07.609Z,64.50
2023-11-23T07:15:11.356Z,67.00
2023-11-23T07:16:14.351Z,70.50
2023-11-23T07:17:17.147Z,71.83
2023-11-23T07:18:20.332Z,72.83
2023-11-23T07:19:23.760Z,69.33
2023-11-23T07:20:29.671Z,68.17
2023-11-23T07:21:32.487Z,69.00
2023-11-23T07:22:35.301Z,70.50
2023-11-23T07:23:38.063Z,71.00
2023-11-23T07:24:41.640Z,71.00
2023-11-23T07:25:45.413Z,70.67
2023-11-23T07:26:48.805Z,72.33
2023-11-23T07:27:51.622Z,78.33
2023-11-23T07:28:54.784Z,84.33
2023-11-23T07:29:57.532Z,106.83
2023-11-23T07:31:02.424Z,103.83
2023-11-23T07:32:05.780Z,95.67
2023-11-23T07:33:11.489Z,91.00
2023-11-23T07:34:14.255Z,76.33
2023-11-23T07:35:17.008Z,62.33
2023-11-23T07:36:19.947Z,61.50
2023-11-23T07:37:22.755Z,62.67
2023-11-23T07:38:25.498Z,65.17
2023-11-23T07:39:28.249Z,66.33
2023-11-23T07:40:31.993Z,66.67
2023-11-23T07:41:34.944Z,65.17
2023-11-23T07:42:38.270Z,72.67
2023-11-23T07:43:41.280Z,83.33
2023-11-23T07:44:44.927Z,83.50
2023-11-23T07:45:47.650Z,83.83
2023-11-23T07:46:50.425Z,83.00
2023-11-23T07:47:53.400Z,98.50
2023-11-23T07:48:56.279Z,108.67
2023-11-23T07:50:00.873Z,104.50
2023-11-23T07:51:03.652Z,99.00
2023-11-23T07:52:06.434Z,97.50
2023-11-23T07:53:09.270Z,113.83
2023-11-23T07:54:12.013Z,116.33
2023-11-23T07:55:18.972Z,108.33
2023-11-23T07:56:22.328Z,102.00
2023-11-23T07:57:25.153Z,96.67
2023-11-23T07:58:27.965Z,88.33
2023-11-23T07:59:31.092Z,84.33
2023-11-23T08:00:38.623Z,89.17
2023-11-23T08:01:41.493Z,93.00
2023-11-23T08:02:44.305Z,93.67
2023-11-23T08:03:47.813Z,94.00
2023-11-23T08:04:51.164Z,93.33
2023-11-23T08:05:54.457Z,90.33
2023-11-23T08:06:57.203Z,83.50
2023-11-23T08:07:59.950Z,77.33
2023-11-23T08:09:02.729Z,88.33
2023-11-23T08:10:13.922Z,96.50
2023-11-23T08:11:16.797Z,100.67
2023-11-23T08:12:19.887Z,106.67
2023-11-23T08:13:22.712Z,109.83
2023-11-23T08:14:25.454Z,118.33
2023-11-23T08:15:29.946Z,121.17
2023-11-23T08:16:33.881Z,111.67
2023-11-23T08:17:37.614Z,104.83
2023-11-23T08:18:47.326Z,96.00
2023-11-23T08:19:52.921Z,85.00
2023-11-23T08:20:55.830Z,90.33
2023-11-23T08:21:58.803Z,133.83
2023-11-23T08:23:01.553Z,119.83
2023-11-23T08:24:04.507Z,114.83
2023-11-23T08:25:07.482Z,116.83
2023-11-23T08:26:12.215Z,122.00
2023-11-23T08:27:15.263Z,124.00
2023-11-23T08:28:18.054Z,118.83
2023-11-23T08:29:21.997Z,106.33
2023-11-23T08:30:24.906Z,102.50
2023-11-23T08:31:29.573Z,157.00
2023-11-23T08:32:32.390Z,155.83
2023-11-23T08:33:35.160Z,137.50
2023-11-23T08:34:39.534Z,130.50
2023-11-23T08:35:44.014Z,248.50
2023-11-23T08:36:47.587Z,428.67
2023-11-23T08:37:50.439Z,365.67
2023-11-23T08:38:53.253Z,240.83
2023-11-23T08:39:57.225Z,182.50
2023-11-23T08:41:01.731Z,141.17
2023-11-23T08:42:04.874Z,138.00
2023-11-23T08:43:09.647Z,120.67
2023-11-23T08:44:12.393Z,110.00
2023-11-23T08:45:15.210Z,108.00
2023-11-23T08:46:18.544Z,114.50
2023-11-23T08:47:21.369Z,112.17
2023-11-23T08:48:24.255Z,111.33
2023-11-23T08:49:27.734Z,124.83
2023-11-23T08:50:30.474Z,125.83
2023-11-23T08:51:33.277Z,123.83
2023-11-23T08:52:36.076Z,128.33
2023-11-23T08:53:38.822Z,129.50
2023-11-23T08:54:41.583Z,132.67
2023-11-23T08:55:46.339Z,135.33
2023-11-23T08:56:49.064Z,128.33
2023-11-23T08:57:54.882Z,109.17
2023-11-23T08:58:57.678Z,104.83
2023-11-23T09:00:02.413Z,109.83
2023-11-23T09:01:06.278Z,109.50
2023-11-23T09:02:17.473Z,107.50
2023-11-23T09:03:23.847Z,111.00
2023-11-23T09:04:33.479Z,114.50
2023-11-23T09:05:43.493Z,130.67
2023-11-23T09:06:46.466Z,151.33
2023-11-23T09:07:51.978Z,135.33
2023-11-23T09:08:55.746Z,118.50
2023-11-23T09:09:58.533Z,118.67
2023-11-23T09:11:01.257Z,119.50
2023-11-23T09:12:04.032Z,115.67
2023-11-23T09:13:06.784Z,107.33
2023-11-23T09:14:10.368Z,113.50
2023-11-23T09:15:14.552Z,144.00
2023-11-23T09:16:17.526Z,214.33
2023-11-23T09:17:20.542Z,238.83
2023-11-23T09:18:23.752Z,177.67
2023-11-23T09:19:26.704Z,140.17
2023-11-23T09:20:29.445Z,112.00
2023-11-23T09:21:32.214Z,98.33
2023-11-23T09:22:36.895Z,105.00
2023-11-23T09:23:39.657Z,112.17
2023-11-23T09:24:42.884Z,116.50
2023-11-23T09:25:45.746Z,106.50
2023-11-23T09:26:48.668Z,111.33
2023-11-23T09:27:51.473Z,114.00
2023-11-23T09:28:54.193Z,107.00
2023-11-23T09:29:57.722Z,118.67
2023-11-23T09:31:00.498Z,129.17
2023-11-23T09:32:04.484Z,102.33
2023-11-23T09:33:11.071Z,94.17
2023-11-23T09:34:14.431Z,97.67
2023-11-23T09:35:17.178Z,101.50
2023-11-23T09:36:20.243Z,100.33
2023-11-23T09:37:23.725Z,100.33
2023-11-23T09:38:26.461Z,98.50
2023-11-23T09:39:29.373Z,97.00
2023-11-23T09:40:32.761Z,98.83
2023-11-23T09:41:41.609Z,97.17
2023-11-23T09:42:44.675Z,97.00
2023-11-23T09:43:51.443Z,97.00
2023-11-23T09:44:58.517Z,105.00
2023-11-23T09:46:03.058Z,113.33
2023-11-23T09:47:07.423Z,112.67
2023-11-23T09:48:12.454Z,112.50
2023-11-23T09:49:16.696Z,119.83
2023-11-23T09:50:20.272Z,126.00
2023-11-23T09:51:24.150Z,124.00
2023-11-23T09:52:29.342Z,126.00
2023-11-23T09:53:33.338Z,129.00
2023-11-23T09:54:36.924Z,158.50
2023-11-23T09:55:39.719Z,147.67
2023-11-23T09:56:42.470Z,137.17
2023-11-23T09:57:46.240Z,136.67
2023-11-23T09:58:49.180Z,136.00
2023-11-23T09:59:51.965Z,127.83
2023-11-23T10:00:54.754Z,121.33
2023-11-23T10:02:05.753Z,111.67
2023-11-23T10:03:09.528Z,108.67
2023-11-23T10:04:13.162Z,108.33
2023-11-23T10:05:17.705Z,109.17
2023-11-23T10:06:20.873Z,110.33
2023-11-23T10:07:25.129Z,108.33
2023-11-23T10:08:29.015Z,105.50
2023-11-23T10:09:34.816Z,112.00
2023-11-23T10:10:39.704Z,127.17
2023-11-23T10:11:42.455Z,128.50
2023-11-23T10:12:46.966Z,122.33
2023-11-23T10:13:49.746Z,117.67
2023-11-23T10:14:55.284Z,114.17
2023-11-23T10:15:58.074Z,104.50
2023-11-23T10:17:00.897Z,97.67
2023-11-23T10:18:03.754Z,97.00
2023-11-23T10:19:06.612Z,102.33
2023-11-23T10:20:13.647Z,106.00
2023-11-23T10:21:16.614Z,106.83
2023-11-23T10:22:19.439Z,107.00
2023-11-23T10:23:22.572Z,107.67
2023-11-23T10:24:25.525Z,106.50
2023-11-23T10:25:33.559Z,98.50
2023-11-23T10:26:36.558Z,97.17
2023-11-23T10:27:39.318Z,93.17
2023-11-23T10:28:42.490Z,93.33
2023-11-23T10:29:45.310Z,102.50
2023-11-23T10:30:48.629Z,113.17
2023-11-23T10:31:52.152Z,108.17
2023-11-23T10:32:56.409Z,102.50
2023-11-23T10:34:00.560Z,119.67
2023-11-23T10:35:10.951Z,133.67
2023-11-23T10:36:15.477Z,120.83
2023-11-23T10:37:18.456Z,126.83
2023-11-23T10:38:35.425Z,130.50
2023-11-23T10:39:45.895Z,125.33
2023-11-23T10:40:49.100Z,124.00
2023-11-23T10:41:54.635Z,123.33
2023-11-23T10:43:01.951Z,120.67
2023-11-23T10:44:05.052Z,114.17
2023-11-23T10:45:09.376Z,125.50
2023-11-23T10:46:12.917Z,129.00
2023-11-23T10:47:17.969Z,125.33
2023-11-23T10:48:25.468Z,120.00
2023-11-23T10:49:28.742Z,165.50
2023-11-23T10:50:33.733Z,159.67
2023-11-23T10:51:36.827Z,144.50
2023-11-23T10:52:43.215Z,122.33
2023-11-23T10:53:46.009Z,235.83
2023-11-23T10:54:49.240Z,385.33
2023-11-23T10:55:52.850Z,220.17
2023-11-23T10:57:00.528Z,148.33
2023-11-23T10:58:09.037Z,128.33
2023-11-23T10:59:21.551Z,113.50
2023-11-23T11:00:28.812Z,98.00
2023-11-23T11:01:32.620Z,98.33
2023-11-23T11:02:35.672Z,125.67
2023-11-23T11:03:40.236Z,113.17
2023-11-23T11:04:43.355Z,121.67
2023-11-23T11:05:51.031Z,107.50
2023-11-23T11:06:56.939Z,100.17
2023-11-23T11:08:08.584Z,90.83
2023-11-23T11:09:18.157Z,91.33
2023-11-23T11:10:20.907Z,82.33
2023-11-23T11:11:25.935Z,93.33
2023-11-23T11:12:38.063Z,90.00
2023-11-23T11:13:44.207Z,82.17
2023-11-23T11:14:55.176Z,85.83
2023-11-23T11:16:01.060Z,98.00
2023-11-23T11:17:06.089Z,100.00
2023-11-23T11:18:11.197Z,115.33
2023-11-23T11:19:15.166Z,116.33
2023-11-23T11:20:23.480Z,114.50
2023-11-23T11:21:27.819Z,107.50
2023-11-23T11:22:32.082Z,96.33
2023-11-23T11:23:53.833Z,95.33
2023-11-23T11:24:59.740Z,110.00
2023-11-23T11:26:28.792Z,113.00
2023-11-23T11:27:35.263Z,102.67
2023-11-23T11:28:41.885Z,82.83
2023-11-23T11:29:52.086Z,81.17
2023-11-23T11:31:05.393Z,84.17
2023-11-23T11:32:09.260Z,84.83
2023-11-23T11:33:15.819Z,96.50
2023-11-23T11:34:21.333Z,103.50
2023-11-23T11:35:27.461Z,89.83
2023-11-23T11:36:32.244Z,81.50
2023-11-23T11:37:35.627Z,74.50
2023-11-23T11:38:40.560Z,71.83
2023-11-23T11:39:45.631Z,76.67
2023-11-23T11:40:50.405Z,75.17
2023-11-23T11:42:00.614Z,69.33
2023-11-23T11:43:09.377Z,72.67
2023-11-23T11:44:14.379Z,78.67
2023-11-23T11:45:18.813Z,91.17
2023-11-23T11:46:22.239Z,95.00
2023-11-23T11:47:27.375Z,96.17
2023-11-23T11:48:30.591Z,89.00
2023-11-23T11:49:33.571Z,82.83
2023-11-23T11:50:36.372Z,73.17
2023-11-23T11:51:39.190Z,67.67
2023-11-23T11:52:42.014Z,70.00
2023-11-23T11:53:45.403Z,71.67
2023-11-23T11:54:48.661Z,72.17
2023-11-23T11:55:54.239Z,73.17
2023-11-23T11:56:56.986Z,76.33
2023-11-23T11:57:59.868Z,78.00
2023-11-23T11:59:05.161Z,77.50
2023-11-23T12:00:08.877Z,77.00
2023-11-23T12:01:14.707Z,77.50
2023-11-23T12:02:17.538Z,74.17
2023-11-23T12:03:21.183Z,70.00
2023-11-23T12:04:25.236Z,67.67
2023-11-23T12:05:29.331Z,67.67
2023-11-23T12:06:32.809Z,69.50
2023-11-23T12:07:35.583Z,75.33
2023-11-23T12:08:38.884Z,84.17
2023-11-23T12:09:46.473Z,83.17
2023-11-23T12:10:50.053Z,87.33
2023-11-23T12:12:06.455Z,86.83
2023-11-23T12:13:16.119Z,86.00
2023-11-23T12:14:20.268Z,83.17
2023-11-23T12:15:23.055Z,72.67
2023-11-23T12:16:36.497Z,66.33
2023-11-23T12:17:48.992Z,67.67
2023-11-23T12:18:51.763Z,69.17
2023-11-23T12:19:57.105Z,70.67
2023-11-23T12:21:00.428Z,68.67
2023-11-23T12:22:04.145Z,67.83
2023-11-23T12:23:09.119Z,64.33
2023-11-23T12:24:18.642Z,61.33
2023-11-23T12:25:21.975Z,66.50
2023-11-23T12:26:25.813Z,71.67
2023-11-23T12:27:28.687Z,70.00
2023-11-23T12:28:32.272Z,66.83
2023-11-23T12:29:35.220Z,61.67
2023-11-23T12:30:38.132Z,197.83
2023-11-23T12:31:41.106Z,338.17
2023-11-23T12:32:43.904Z,442.00
2023-11-23T12:33:46.756Z,482.67
2023-11-23T12:34:49.602Z,497.33
2023-11-23T12:35:52.464Z,479.67
2023-11-23T12:36:59.413Z,490.33
2023-11-23T12:38:02.258Z,497.33
2023-11-23T12:39:05.499Z,494.33
2023-11-23T12:40:11.571Z,477.33
2023-11-23T12:41:14.336Z,425.00
2023-11-23T12:42:17.630Z,468.33
2023-11-23T12:43:23.697Z,497.17
2023-11-23T12:44:26.613Z,499.00
2023-11-23T12:45:29.743Z,498.00
2023-11-23T12:46:32.992Z,492.33
2023-11-23T12:47:38.867Z,498.33
2023-11-23T12:48:41.753Z,499.00
2023-11-23T12:49:44.821Z,500.00
2023-11-23T12:50:49.815Z,499.17
2023-11-23T12:51:53.612Z,498.83
2023-11-23T12:52:56.394Z,498.00
2023-11-23T12:53:59.224Z,497.50
2023-11-23T12:55:02.695Z,497.00
2023-11-23T12:56:05.852Z,495.17
2023-11-23T12:57:10.522Z,490.50
2023-11-23T12:58:14.878Z,484.50
2023-11-23T12:59:18.186Z,458.83
2023-11-23T13:00:23.026Z,436.00
2023-11-23T13:01:25.890Z,412.17
2023-11-23T13:02:28.874Z,391.17
2023-11-23T13:03:31.743Z,384.17
2023-11-23T13:04:36.050Z,447.83
2023-11-23T13:05:39.302Z,489.33
2023-11-23T13:06:43.160Z,495.33
2023-11-23T13:07:46.226Z,494.83
2023-11-23T13:08:49.418Z,496.67
2023-11-23T13:09:52.755Z,496.33
2023-11-23T13:10:55.543Z,489.00
2023-11-23T13:11:59.617Z,471.50
2023-11-23T13:13:02.712Z,413.33
2023-11-23T13:14:07.319Z,392.00
2023-11-23T13:15:13.512Z,416.50
2023-11-23T13:16:18.862Z,456.83
2023-11-23T13:17:21.733Z,453.67
2023-11-23T13:18:38.410Z,446.50
2023-11-23T13:19:49.424Z,440.83
2023-11-23T13:20:52.382Z,429.50
2023-11-23T13:21:55.286Z,408.33
2023-11-23T13:23:00.502Z,359.67
2023-11-23T13:24:05.760Z,315.83
2023-11-23T13:25:12.856Z,293.33
2023-11-23T13:26:15.831Z,277.83
2023-11-23T13:27:18.571Z,277.00
2023-11-23T13:28:22.082Z,262.83
2023-11-23T13:29:24.946Z,277.67
2023-11-23T13:30:32.126Z,437.50
2023-11-23T13:31:36.354Z,492.83
2023-11-23T13:32:41.575Z,494.83
2023-11-23T13:33:45.436Z,493.17
2023-11-23T13:34:50.653Z,494.83